Terminal Aerodrome Forecast
Issued by NWS

Home | Current Version | Previous Version | Text Only | Print | Product List | Glossary Off
Versions: 1 2 3 4 5 6 7 8 9 10 11 12 13 14 15 16 17

593
FTUS43 KMPX 071139
TAFRNH
TAF
KRNH 071139Z 0712/0812 20011KT P6SM BKN120 WS010/27040KT
     FM071400 26014G20KT P6SM SCT030 BKN060
     FM072200 30020G30KT 3SM -SN OVC025
     FM080400 31022G32KT 2SM -SN BLSN OVC015=

USA.gov is the U.S. government's official web portal to all federal, state and local government web resources and services.